sensor_id;sensor_type;location;lat;lon;timestamp;pressure;altitude;pressure_sealevel;temperature;humidity
67345;BME280;54230;52.402;6.276;2023-07-29T00:00:00;100700.0;;;22.5;66.1
67345;BME280;54230;52.402;6.276;2023-07-29T00:05:00;100700.0;;;22.5;66.4
67345;BME280;54230;52.402;6.276;2023-07-29T00:10:00;100690.0;;;22.5;65.9
67345;BME280;54230;52.402;6.276;2023-07-29T00:15:00;100690.0;;;22.4;66.2
67345;BME280;54230;52.402;6.276;2023-07-29T00:20:00;100700.0;;;22.4;66.5
67345;BME280;54230;52.402;6.276;2023-07-29T00:25:00;100690.0;;;22.2;67.1
67345;BME280;54230;52.402;6.276;2023-07-29T00:30:00;100690.0;;;22.1;67.3
67345;BME280;54230;52.402;6.276;2023-07-29T00:35:00;100690.0;;;22.0;67.6
67345;BME280;54230;52.402;6.276;2023-07-29T00:40:00;100680.0;;;22.0;67.8
67345;BME280;54230;52.402;6.276;2023-07-29T00:45:00;100680.0;;;22.0;67.6
67345;BME280;54230;52.402;6.276;2023-07-29T00:50:00;100690.0;;;21.9;67.3
67345;BME280;54230;52.402;6.276;2023-07-29T00:55:00;100680.0;;;22.0;67.0
67345;BME280;54230;52.402;6.276;2023-07-29T01:00:00;100670.0;;;21.9;66.3
67345;BME280;54230;52.402;6.276;2023-07-29T01:05:01;100660.0;;;21.7;66.0
67345;BME280;54230;52.402;6.276;2023-07-29T01:10:03;100670.0;;;21.6;66.2
67345;BME280;54230;52.402;6.276;2023-07-29T01:15:06;100660.0;;;21.5;66.6
67345;BME280;54230;52.402;6.276;2023-07-29T01:20:01;100660.0;;;21.4;67.0
67345;BME280;54230;52.402;6.276;2023-07-29T01:25:01;100660.0;;;21.2;67.3
67345;BME280;54230;52.402;6.276;2023-07-29T01:30:01;100660.0;;;21.1;67.4
67345;BME280;54230;52.402;6.276;2023-07-29T01:35:06;100650.0;;;21.0;67.9
67345;BME280;54230;52.402;6.276;2023-07-29T01:40:01;100650.0;;;21.0;68.0
67345;BME280;54230;52.402;6.276;2023-07-29T01:45:00;100640.0;;;20.9;67.9
67345;BME280;54230;52.402;6.276;2023-07-29T01:50:00;100680.0;;;21.1;67.6
67345;BME280;54230;52.402;6.276;2023-07-29T01:55:00;100660.0;;;21.2;66.9
67345;BME280;54230;52.402;6.276;2023-07-29T02:00:02;100650.0;;;21.2;66.3
67345;BME280;54230;52.402;6.276;2023-07-29T02:05:00;100640.0;;;21.1;66.5
67345;BME280;54230;52.402;6.276;2023-07-29T02:10:00;100630.0;;;20.8;67.5
67345;BME280;54230;52.402;6.276;2023-07-29T02:15:00;100620.0;;;20.7;67.9
67345;BME280;54230;52.402;6.276;2023-07-29T02:20:00;100630.0;;;20.7;67.9
67345;BME280;54230;52.402;6.276;2023-07-29T02:25:00;100630.0;;;20.8;67.6
67345;BME280;54230;52.402;6.276;2023-07-29T02:30:00;100630.0;;;20.8;67.1
67345;BME280;54230;52.402;6.276;2023-07-29T02:35:00;100640.0;;;20.8;67.1
67345;BME280;54230;52.402;6.276;2023-07-29T02:40:00;100640.0;;;20.9;66.6
67345;BME280;54230;52.402;6.276;2023-07-29T02:45:00;100620.0;;;20.8;66.8
67345;BME280;54230;52.402;6.276;2023-07-29T02:50:00;100620.0;;;20.6;67.2
67345;BME280;54230;52.402;6.276;2023-07-29T02:55:00;100620.0;;;20.6;67.7
67345;BME280;54230;52.402;6.276;2023-07-29T03:00:00;100620.0;;;20.7;67.5
67345;BME280;54230;52.402;6.276;2023-07-29T03:05:00;100630.0;;;20.8;67.0
67345;BME280;54230;52.402;6.276;2023-07-29T03:10:00;100620.0;;;20.9;66.7
67345;BME280;54230;52.402;6.276;2023-07-29T03:15:00;100610.0;;;20.9;66.3
67345;BME280;54230;52.402;6.276;2023-07-29T03:20:00;100610.0;;;20.8;66.6
67345;BME280;54230;52.402;6.276;2023-07-29T03:25:00;100620.0;;;20.8;66.8
67345;BME280;54230;52.402;6.276;2023-07-29T03:30:00;100610.0;;;20.7;66.9
67345;BME280;54230;52.402;6.276;2023-07-29T03:35:00;100600.0;;;20.6;67.6
67345;BME280;54230;52.402;6.276;2023-07-29T03:40:00;100590.0;;;20.7;67.6
67345;BME280;54230;52.402;6.276;2023-07-29T03:45:00;100600.0;;;20.6;68.1
67345;BME280;54230;52.402;6.276;2023-07-29T03:50:00;100600.0;;;20.6;68.5
67345;BME280;54230;52.402;6.276;2023-07-29T03:55:00;100600.0;;;20.7;68.0
67345;BME280;54230;52.402;6.276;2023-07-29T04:00:00;100600.0;;;20.8;67.8
67345;BME280;54230;52.402;6.276;2023-07-29T04:05:00;100600.0;;;20.8;68.1
67345;BME280;54230;52.402;6.276;2023-07-29T04:10:00;100600.0;;;20.6;68.5
67345;BME280;54230;52.402;6.276;2023-07-29T04:15:00;100600.0;;;20.6;68.9
67345;BME280;54230;52.402;6.276;2023-07-29T04:20:01;100600.0;;;20.7;68.5
67345;BME280;54230;52.402;6.276;2023-07-29T04:25:00;100590.0;;;20.7;68.7
67345;BME280;54230;52.402;6.276;2023-07-29T04:30:00;100590.0;;;20.7;69.4
67345;BME280;54230;52.402;6.276;2023-07-29T04:35:00;100600.0;;;20.7;69.3
67345;BME280;54230;52.402;6.276;2023-07-29T04:40:00;100600.0;;;20.8;68.8
67345;BME280;54230;52.402;6.276;2023-07-29T04:45:00;100600.0;;;20.8;68.6
67345;BME280;54230;52.402;6.276;2023-07-29T04:50:00;100590.0;;;20.8;68.5
67345;BME280;54230;52.402;6.276;2023-07-29T04:55:00;100590.0;;;20.8;68.4
67345;BME280;54230;52.402;6.276;2023-07-29T05:00:00;100590.0;;;20.9;68.4
67345;BME280;54230;52.402;6.276;2023-07-29T05:05:00;100580.0;;;20.9;68.4
67345;BME280;54230;52.402;6.276;2023-07-29T05:10:00;100580.0;;;20.9;68.1
67345;BME280;54230;52.402;6.276;2023-07-29T05:15:00;100580.0;;;20.8;68.2
67345;BME280;54230;52.402;6.276;2023-07-29T05:20:00;100600.0;;;20.8;68.3
67345;BME280;54230;52.402;6.276;2023-07-29T05:25:00;100610.0;;;20.8;68.7
67345;BME280;54230;52.402;6.276;2023-07-29T05:30:00;100630.0;;;20.9;68.6
67345;BME280;54230;52.402;6.276;2023-07-29T05:35:00;100620.0;;;21.0;68.4
67345;BME280;54230;52.402;6.276;2023-07-29T05:40:00;100630.0;;;21.1;67.7
67345;BME280;54230;52.402;6.276;2023-07-29T05:45:00;100630.0;;;21.2;67.4
67345;BME280;54230;52.402;6.276;2023-07-29T05:50:00;100630.0;;;21.2;66.7
67345;BME280;54230;52.402;6.276;2023-07-29T05:55:00;100630.0;;;21.4;66.6
67345;BME280;54230;52.402;6.276;2023-07-29T06:00:00;100640.0;;;21.6;65.9
67345;BME280;54230;52.402;6.276;2023-07-29T06:05:00;100630.0;;;21.6;65.4
67345;BME280;54230;52.402;6.276;2023-07-29T06:10:00;100630.0;;;21.6;65.0
67345;BME280;54230;52.402;6.276;2023-07-29T06:15:00;100640.0;;;21.8;64.7
67345;BME280;54230;52.402;6.276;2023-07-29T06:20:00;100650.0;;;21.8;64.2
67345;BME280;54230;52.402;6.276;2023-07-29T06:25:00;100640.0;;;21.8;64.1
67345;BME280;54230;52.402;6.276;2023-07-29T06:30:00;100650.0;;;21.9;63.6
67345;BME280;54230;52.402;6.276;2023-07-29T06:35:00;100660.0;;;22.0;63.1
67345;BME280;54230;52.402;6.276;2023-07-29T06:40:00;100660.0;;;22.2;62.3
67345;BME280;54230;52.402;6.276;2023-07-29T06:45:00;100660.0;;;22.0;62.6
67345;BME280;54230;52.402;6.276;2023-07-29T06:50:00;100650.0;;;22.0;62.7
67345;BME280;54230;52.402;6.276;2023-07-29T06:55:00;100650.0;;;22.0;62.8
67345;BME280;54230;52.402;6.276;2023-07-29T07:00:00;100640.0;;;22.3;62.4
67345;BME280;54230;52.402;6.276;2023-07-29T07:05:00;100640.0;;;22.4;61.7
67345;BME280;54230;52.402;6.276;2023-07-29T07:10:00;100640.0;;;22.4;61.9
67345;BME280;54230;52.402;6.276;2023-07-29T07:15:01;100630.0;;;22.4;61.8
67345;BME280;54230;52.402;6.276;2023-07-29T07:20:00;100630.0;;;22.4;61.4
67345;BME280;54230;52.402;6.276;2023-07-29T07:25:00;100640.0;;;22.4;61.6
67345;BME280;54230;52.402;6.276;2023-07-29T07:30:00;100640.0;;;22.3;62.3
67345;BME280;54230;52.402;6.276;2023-07-29T07:35:00;100640.0;;;22.5;62.0
67345;BME280;54230;52.402;6.276;2023-07-29T07:40:00;100640.0;;;22.8;60.4
67345;BME280;54230;52.402;6.276;2023-07-29T07:45:00;100660.0;;;23.0;59.4
67345;BME280;54230;52.402;6.276;2023-07-29T07:50:00;100660.0;;;23.4;58.8
67345;BME280;54230;52.402;6.276;2023-07-29T07:55:00;100660.0;;;23.6;57.8
67345;BME280;54230;52.402;6.276;2023-07-29T08:00:00;100670.0;;;23.9;56.8
67345;BME280;54230;52.402;6.276;2023-07-29T08:05:00;100680.0;;;24.5;55.6
67345;BME280;54230;52.402;6.276;2023-07-29T08:10:00;100670.0;;;24.7;54.8
67345;BME280;54230;52.402;6.276;2023-07-29T08:15:00;100670.0;;;24.9;54.6
67345;BME280;54230;52.402;6.276;2023-07-29T08:20:00;100670.0;;;25.1;53.6
67345;BME280;54230;52.402;6.276;2023-07-29T08:25:00;100670.0;;;25.2;53.5
67345;BME280;54230;52.402;6.276;2023-07-29T08:30:00;100670.0;;;25.3;53.1
67345;BME280;54230;52.402;6.276;2023-07-29T08:35:00;100670.0;;;25.4;52.4
67345;BME280;54230;52.402;6.276;2023-07-29T08:40:00;100670.0;;;25.3;52.8
67345;BME280;54230;52.402;6.276;2023-07-29T08:45:06;100650.0;;;25.3;52.5
67345;BME280;54230;52.402;6.276;2023-07-29T08:50:01;100650.0;;;25.1;53.3
67345;BME280;54230;52.402;6.276;2023-07-29T08:55:00;100660.0;;;25.1;53.3
67345;BME280;54230;52.402;6.276;2023-07-29T09:00:01;100670.0;;;25.0;53.3
67345;BME280;54230;52.402;6.276;2023-07-29T09:05:01;100670.0;;;25.0;53.9
67345;BME280;54230;52.402;6.276;2023-07-29T09:10:00;100680.0;;;25.4;53.0
67345;BME280;54230;52.402;6.276;2023-07-29T09:15:00;100680.0;;;25.3;52.8
67345;BME280;54230;52.402;6.276;2023-07-29T09:20:00;100680.0;;;25.2;53.6
67345;BME280;54230;52.402;6.276;2023-07-29T09:25:00;100690.0;;;25.1;53.8
67345;BME280;54230;52.402;6.276;2023-07-29T09:30:00;100680.0;;;25.4;53.4
67345;BME280;54230;52.402;6.276;2023-07-29T09:35:00;100680.0;;;25.5;53.0
67345;BME280;54230;52.402;6.276;2023-07-29T09:40:00;100680.0;;;25.5;52.9
67345;BME280;54230;52.402;6.276;2023-07-29T09:45:00;100670.0;;;25.3;53.2
67345;BME280;54230;52.402;6.276;2023-07-29T09:50:00;100670.0;;;25.3;53.3
67345;BME280;54230;52.402;6.276;2023-07-29T09:55:00;100670.0;;;25.8;52.6
67345;BME280;54230;52.402;6.276;2023-07-29T10:00:00;100670.0;;;25.9;51.7
67345;BME280;54230;52.402;6.276;2023-07-29T10:05:02;100670.0;;;25.7;52.1
67345;BME280;54230;52.402;6.276;2023-07-29T10:10:01;100670.0;;;25.8;51.9
67345;BME280;54230;52.402;6.276;2023-07-29T10:15:02;100670.0;;;25.9;51.6
67345;BME280;54230;52.402;6.276;2023-07-29T10:20:00;100670.0;;;25.8;52.2
67345;BME280;54230;52.402;6.276;2023-07-29T10:25:03;100670.0;;;26.1;52.1
67345;BME280;54230;52.402;6.276;2023-07-29T10:30:01;100670.0;;;26.2;51.5
67345;BME280;54230;52.402;6.276;2023-07-29T10:35:00;100670.0;;;26.5;50.6
67345;BME280;54230;52.402;6.276;2023-07-29T10:40:00;100670.0;;;26.6;50.4
67345;BME280;54230;52.402;6.276;2023-07-29T10:45:18;100670.0;;;26.9;49.0
67345;BME280;54230;52.402;6.276;2023-07-29T10:50:00;100680.0;;;26.9;49.2
67345;BME280;54230;52.402;6.276;2023-07-29T10:55:01;100670.0;;;27.0;48.2
67345;BME280;54230;52.402;6.276;2023-07-29T11:00:01;100670.0;;;27.1;48.3
67345;BME280;54230;52.402;6.276;2023-07-29T11:05:05;100660.0;;;27.4;46.8
67345;BME280;54230;52.402;6.276;2023-07-29T11:10:02;100660.0;;;27.3;46.1
67345;BME280;54230;52.402;6.276;2023-07-29T11:15:03;100670.0;;;27.2;46.6
67345;BME280;54230;52.402;6.276;2023-07-29T11:20:01;100670.0;;;26.8;47.6
67345;BME280;54230;52.402;6.276;2023-07-29T11:25:00;100670.0;;;26.3;48.8
67345;BME280;54230;52.402;6.276;2023-07-29T11:30:02;100670.0;;;25.8;49.8
67345;BME280;54230;52.402;6.276;2023-07-29T11:35:02;100680.0;;;25.6;51.1
67345;BME280;54230;52.402;6.276;2023-07-29T11:40:00;100680.0;;;26.2;50.0
67345;BME280;54230;52.402;6.276;2023-07-29T11:45:00;100680.0;;;26.4;48.6
67345;BME280;54230;52.402;6.276;2023-07-29T11:50:01;100670.0;;;26.4;48.5
67345;BME280;54230;52.402;6.276;2023-07-29T11:55:01;100660.0;;;26.4;48.8
67345;BME280;54230;52.402;6.276;2023-07-29T12:00:03;100670.0;;;26.4;49.0
67345;BME280;54230;52.402;6.276;2023-07-29T12:05:00;100690.0;;;26.5;49.7
67345;BME280;54230;52.402;6.276;2023-07-29T12:10:01;100690.0;;;26.4;49.8
67345;BME280;54230;52.402;6.276;2023-07-29T12:15:00;100690.0;;;26.7;49.6
67345;BME280;54230;52.402;6.276;2023-07-29T12:20:00;100680.0;;;27.0;48.6
67345;BME280;54230;52.402;6.276;2023-07-29T12:25:00;100680.0;;;27.0;48.7
67345;BME280;54230;52.402;6.276;2023-07-29T12:30:01;100690.0;;;27.0;48.5
67345;BME280;54230;52.402;6.276;2023-07-29T12:35:00;100690.0;;;26.7;48.7
67345;BME280;54230;52.402;6.276;2023-07-29T12:40:01;100700.0;;;26.7;48.6
67345;BME280;54230;52.402;6.276;2023-07-29T12:45:00;100700.0;;;26.5;50.7
67345;BME280;54230;52.402;6.276;2023-07-29T12:50:00;100700.0;;;26.2;52.0
67345;BME280;54230;52.402;6.276;2023-07-29T12:55:00;100700.0;;;26.2;52.4
67345;BME280;54230;52.402;6.276;2023-07-29T13:00:00;100700.0;;;26.2;53.1
67345;BME280;54230;52.402;6.276;2023-07-29T13:05:00;100690.0;;;26.7;51.7
67345;BME280;54230;52.402;6.276;2023-07-29T13:10:00;100690.0;;;27.0;48.7
67345;BME280;54230;52.402;6.276;2023-07-29T13:15:00;100700.0;;;26.7;47.5
67345;BME280;54230;52.402;6.276;2023-07-29T13:20:00;100700.0;;;26.5;48.2
67345;BME280;54230;52.402;6.276;2023-07-29T13:25:00;100680.0;;;26.4;48.6
67345;BME280;54230;52.402;6.276;2023-07-29T13:30:00;100680.0;;;26.4;48.5
67345;BME280;54230;52.402;6.276;2023-07-29T13:35:00;100680.0;;;26.5;48.9
67345;BME280;54230;52.402;6.276;2023-07-29T13:40:00;100680.0;;;26.8;48.7
67345;BME280;54230;52.402;6.276;2023-07-29T13:45:00;100680.0;;;27.1;49.0
67345;BME280;54230;52.402;6.276;2023-07-29T13:50:00;100680.0;;;27.6;47.4
67345;BME280;54230;52.402;6.276;2023-07-29T13:55:00;100690.0;;;27.7;47.4
67345;BME280;54230;52.402;6.276;2023-07-29T14:00:00;100700.0;;;27.2;46.9
67345;BME280;54230;52.402;6.276;2023-07-29T14:05:00;100700.0;;;27.2;47.6
67345;BME280;54230;52.402;6.276;2023-07-29T14:10:00;100700.0;;;28.1;46.2
67345;BME280;54230;52.402;6.276;2023-07-29T14:15:00;100690.0;;;28.5;45.5
67345;BME280;54230;52.402;6.276;2023-07-29T14:20:00;100690.0;;;28.8;44.1
67345;BME280;54230;52.402;6.276;2023-07-29T14:25:00;100690.0;;;29.3;42.8
67345;BME280;54230;52.402;6.276;2023-07-29T14:30:00;100700.0;;;29.2;42.3
67345;BME280;54230;52.402;6.276;2023-07-29T14:35:00;100700.0;;;28.6;43.3
67345;BME280;54230;52.402;6.276;2023-07-29T14:40:01;100700.0;;;28.0;44.4
67345;BME280;54230;52.402;6.276;2023-07-29T14:45:00;100700.0;;;27.8;45.3
67345;BME280;54230;52.402;6.276;2023-07-29T14:50:00;100700.0;;;27.6;46.6
67345;BME280;54230;52.402;6.276;2023-07-29T14:55:00;100700.0;;;27.6;46.4
67345;BME280;54230;52.402;6.276;2023-07-29T15:00:00;100700.0;;;27.2;47.2
67345;BME280;54230;52.402;6.276;2023-07-29T15:05:00;100680.0;;;27.8;46.9
67345;BME280;54230;52.402;6.276;2023-07-29T15:10:00;100680.0;;;28.3;46.6
67345;BME280;54230;52.402;6.276;2023-07-29T15:15:00;100680.0;;;28.6;45.9
67345;BME280;54230;52.402;6.276;2023-07-29T15:20:01;100670.0;;;28.9;45.5
67345;BME280;54230;52.402;6.276;2023-07-29T15:25:00;100670.0;;;28.9;45.7
67345;BME280;54230;52.402;6.276;2023-07-29T15:30:00;100680.0;;;29.4;44.9
67345;BME280;54230;52.402;6.276;2023-07-29T15:35:00;100680.0;;;29.6;43.4
67345;BME280;54230;52.402;6.276;2023-07-29T15:40:00;100670.0;;;29.2;44.6
67345;BME280;54230;52.402;6.276;2023-07-29T15:45:00;100660.0;;;29.3;44.6
67345;BME280;54230;52.402;6.276;2023-07-29T15:50:00;100660.0;;;29.3;44.5
67345;BME280;54230;52.402;6.276;2023-07-29T15:55:00;100670.0;;;29.0;44.7
67345;BME280;54230;52.402;6.276;2023-07-29T16:00:00;100670.0;;;28.7;45.8
67345;BME280;54230;52.402;6.276;2023-07-29T16:05:00;100660.0;;;28.7;45.0
67345;BME280;54230;52.402;6.276;2023-07-29T16:10:00;100660.0;;;28.4;45.7
67345;BME280;54230;52.402;6.276;2023-07-29T16:15:00;100650.0;;;28.5;45.5
67345;BME280;54230;52.402;6.276;2023-07-29T16:20:02;100650.0;;;28.8;44.5
67345;BME280;54230;52.402;6.276;2023-07-29T16:25:00;100660.0;;;28.9;44.3
67345;BME280;54230;52.402;6.276;2023-07-29T16:30:01;100650.0;;;29.3;43.2
67345;BME280;54230;52.402;6.276;2023-07-29T16:35:00;100640.0;;;29.8;42.1
67345;BME280;54230;52.402;6.276;2023-07-29T16:40:00;100640.0;;;30.0;40.9
67345;BME280;54230;52.402;6.276;2023-07-29T16:45:00;100650.0;;;30.3;40.3
67345;BME280;54230;52.402;6.276;2023-07-29T16:50:00;100640.0;;;30.2;39.5
67345;BME280;54230;52.402;6.276;2023-07-29T16:55:00;100650.0;;;29.5;40.2
67345;BME280;54230;52.402;6.276;2023-07-29T17:00:00;100650.0;;;28.8;41.4
67345;BME280;54230;52.402;6.276;2023-07-29T17:05:00;100640.0;;;28.3;42.7
67345;BME280;54230;52.402;6.276;2023-07-29T17:10:00;100650.0;;;27.9;43.1
67345;BME280;54230;52.402;6.276;2023-07-29T17:15:00;100660.0;;;27.9;43.0
67345;BME280;54230;52.402;6.276;2023-07-29T17:20:00;100670.0;;;27.9;43.3
67345;BME280;54230;52.402;6.276;2023-07-29T17:25:00;100660.0;;;28.3;43.4
67345;BME280;54230;52.402;6.276;2023-07-29T17:30:00;100660.0;;;28.2;43.2
67345;BME280;54230;52.402;6.276;2023-07-29T17:35:00;100660.0;;;27.7;44.3
67345;BME280;54230;52.402;6.276;2023-07-29T17:40:00;100670.0;;;27.3;45.2
67345;BME280;54230;52.402;6.276;2023-07-29T17:45:00;100680.0;;;27.0;46.3
67345;BME280;54230;52.402;6.276;2023-07-29T17:50:00;100680.0;;;26.9;46.9
67345;BME280;54230;52.402;6.276;2023-07-29T17:55:00;100690.0;;;26.7;47.2
67345;BME280;54230;52.402;6.276;2023-07-29T18:00:00;100680.0;;;26.5;47.9
67345;BME280;54230;52.402;6.276;2023-07-29T18:05:00;100680.0;;;26.5;48.0
67345;BME280;54230;52.402;6.276;2023-07-29T18:10:00;100680.0;;;26.4;48.2
67345;BME280;54230;52.402;6.276;2023-07-29T18:15:00;100680.0;;;26.1;48.8
67345;BME280;54230;52.402;6.276;2023-07-29T18:20:01;100680.0;;;25.9;49.5
67345;BME280;54230;52.402;6.276;2023-07-29T18:25:00;100680.0;;;25.6;50.3
67345;BME280;54230;52.402;6.276;2023-07-29T18:30:00;100680.0;;;25.5;50.3
67345;BME280;54230;52.402;6.276;2023-07-29T18:35:00;100680.0;;;25.4;50.6
67345;BME280;54230;52.402;6.276;2023-07-29T18:40:00;100690.0;;;25.4;50.6
67345;BME280;54230;52.402;6.276;2023-07-29T18:45:00;100700.0;;;25.4;50.7
67345;BME280;54230;52.402;6.276;2023-07-29T18:50:00;100690.0;;;25.4;51.0
67345;BME280;54230;52.402;6.276;2023-07-29T18:55:00;100690.0;;;25.3;51.6
67345;BME280;54230;52.402;6.276;2023-07-29T19:00:00;100720.0;;;25.3;51.3
67345;BME280;54230;52.402;6.276;2023-07-29T19:05:00;100730.0;;;25.1;52.7
67345;BME280;54230;52.402;6.276;2023-07-29T19:10:00;100730.0;;;24.2;57.9
67345;BME280;54230;52.402;6.276;2023-07-29T19:15:00;100740.0;;;22.1;66.7
67345;BME280;54230;52.402;6.276;2023-07-29T19:20:00;100740.0;;;21.7;70.3
67345;BME280;54230;52.402;6.276;2023-07-29T19:25:00;100740.0;;;21.6;72.1
67345;BME280;54230;52.402;6.276;2023-07-29T19:30:00;100750.0;;;21.6;72.6
67345;BME280;54230;52.402;6.276;2023-07-29T19:35:00;100750.0;;;21.6;72.4
67345;BME280;54230;52.402;6.276;2023-07-29T19:40:00;100750.0;;;21.5;72.7
67345;BME280;54230;52.402;6.276;2023-07-29T19:45:00;100740.0;;;21.4;72.7
67345;BME280;54230;52.402;6.276;2023-07-29T19:50:00;100740.0;;;21.4;72.6
67345;BME280;54230;52.402;6.276;2023-07-29T19:55:00;100750.0;;;21.3;73.1
67345;BME280;54230;52.402;6.276;2023-07-29T20:00:00;100760.0;;;21.2;73.3
67345;BME280;54230;52.402;6.276;2023-07-29T20:05:00;100760.0;;;21.1;73.3
67345;BME280;54230;52.402;6.276;2023-07-29T20:10:00;100760.0;;;21.1;73.2
67345;BME280;54230;52.402;6.276;2023-07-29T20:15:00;100770.0;;;21.1;72.9
67345;BME280;54230;52.402;6.276;2023-07-29T20:20:00;100760.0;;;21.0;72.8
67345;BME280;54230;52.402;6.276;2023-07-29T20:25:00;100760.0;;;21.0;72.6
67345;BME280;54230;52.402;6.276;2023-07-29T20:30:00;100760.0;;;21.0;72.4
67345;BME280;54230;52.402;6.276;2023-07-29T20:35:00;100760.0;;;21.0;71.8
67345;BME280;54230;52.402;6.276;2023-07-29T20:40:00;100760.0;;;21.0;70.2
67345;BME280;54230;52.402;6.276;2023-07-29T20:45:01;100760.0;;;20.9;68.7
67345;BME280;54230;52.402;6.276;2023-07-29T20:50:00;100760.0;;;20.8;67.4
67345;BME280;54230;52.402;6.276;2023-07-29T20:55:00;100770.0;;;20.6;67.2
67345;BME280;54230;52.402;6.276;2023-07-29T21:00:00;100770.0;;;20.4;67.5
67345;BME280;54230;52.402;6.276;2023-07-29T21:05:00;100770.0;;;20.2;67.3
67345;BME280;54230;52.402;6.276;2023-07-29T21:10:00;100770.0;;;20.1;66.9
67345;BME280;54230;52.402;6.276;2023-07-29T21:15:00;100770.0;;;20.0;67.0
67345;BME280;54230;52.402;6.276;2023-07-29T21:20:00;100770.0;;;19.9;67.2
67345;BME280;54230;52.402;6.276;2023-07-29T21:25:00;100770.0;;;20.0;67.2
67345;BME280;54230;52.402;6.276;2023-07-29T21:30:00;100770.0;;;19.9;67.5
67345;BME280;54230;52.402;6.276;2023-07-29T21:35:00;100770.0;;;19.9;67.4
67345;BME280;54230;52.402;6.276;2023-07-29T21:40:00;100770.0;;;19.9;67.4
67345;BME280;54230;52.402;6.276;2023-07-29T21:45:00;100770.0;;;19.7;66.5
67345;BME280;54230;52.402;6.276;2023-07-29T21:50:00;100770.0;;;19.6;65.9
67345;BME280;54230;52.402;6.276;2023-07-29T21:55:00;100770.0;;;19.5;65.6
67345;BME280;54230;52.402;6.276;2023-07-29T22:00:00;100770.0;;;19.4;65.6
67345;BME280;54230;52.402;6.276;2023-07-29T22:05:00;100770.0;;;19.4;65.8
67345;BME280;54230;52.402;6.276;2023-07-29T22:10:00;100770.0;;;19.3;65.8
67345;BME280;54230;52.402;6.276;2023-07-29T22:15:00;100780.0;;;19.2;65.5
67345;BME280;54230;52.402;6.276;2023-07-29T22:20:00;100780.0;;;19.1;65.3
67345;BME280;54230;52.402;6.276;2023-07-29T22:25:00;100790.0;;;19.0;65.5
67345;BME280;54230;52.402;6.276;2023-07-29T22:30:00;100790.0;;;19.0;65.7
67345;BME280;54230;52.402;6.276;2023-07-29T22:35:00;100790.0;;;18.9;66.0
67345;BME280;54230;52.402;6.276;2023-07-29T22:40:00;100790.0;;;18.9;66.1
67345;BME280;54230;52.402;6.276;2023-07-29T22:45:00;100800.0;;;18.8;66.1
67345;BME280;54230;52.402;6.276;2023-07-29T22:50:00;100800.0;;;18.8;66.4
67345;BME280;54230;52.402;6.276;2023-07-29T22:55:00;100800.0;;;18.7;66.6
67345;BME280;54230;52.402;6.276;2023-07-29T23:00:00;100800.0;;;18.6;66.9
67345;BME280;54230;52.402;6.276;2023-07-29T23:05:00;100800.0;;;18.5;67.4
67345;BME280;54230;52.402;6.276;2023-07-29T23:10:00;100810.0;;;18.5;67.0
67345;BME280;54230;52.402;6.276;2023-07-29T23:15:00;100810.0;;;18.5;67.2
67345;BME280;54230;52.402;6.276;2023-07-29T23:20:00;100820.0;;;18.5;67.4
67345;BME280;54230;52.402;6.276;2023-07-29T23:25:00;100820.0;;;18.4;67.1
67345;BME280;54230;52.402;6.276;2023-07-29T23:30:00;100820.0;;;18.4;67.1
67345;BME280;54230;52.402;6.276;2023-07-29T23:35:00;100820.0;;;18.3;67.2
67345;BME280;54230;52.402;6.276;2023-07-29T23:40:00;100820.0;;;18.3;67.1
67345;BME280;54230;52.402;6.276;2023-07-29T23:45:00;100830.0;;;18.3;67.0
67345;BME280;54230;52.402;6.276;2023-07-29T23:50:00;100820.0;;;18.3;67.0
67345;BME280;54230;52.402;6.276;2023-07-29T23:55:01;100820.0;;;18.2;67.0
